Tiempo atmosférico en la estación meteorológica de Estaca De Bares, A Coruña (80 m.)



Fecha
DESCASC
Temp. máxima en grados centígrados (hora)
DESCASC
Temp. mínima en grados centígrados (hora)
DESCASC
Temp. media en grados centígrados
DESCASC
Racha de viento máxima en m/sg (hora)
DESCASC
Velocidad máxima media en intervalos de 10 minutos(hora)
DESCASC
Precipitaciones diarias en mm
DESCASC
Precipitaciones de 00:00 a 06:00 en mm
DESCASC
Precipitaciones de 06:00 a 12:00 en mm
DESCASC
Precipitaciones de 12:00 a 18:00 en mm
DESCASC
Precipitaciones de 18:00 a 24:00 en mm
DESCASC
22-01-2020 11.8 (14:30) 8.9 (01:10) 10.3 23.89 (05:00) 19.17 (05:00) 3.2 0.2 0 0 3
21-01-2020 10.1 (19:00) 8.1 (04:20) 9.1 25.28 (20:20) 20.28 (20:20) 2.2 0.6 0.6 0 1
20-01-2020 10.2 (01:30) 6.5 (09:40) 8.3 33.61 (09:40) 23.61 (09:00) 1.4 0.2 1.2 0 0
19-01-2020 11.1 (00:50) 9.5 (00:00) 10.3 28.06 (22:20) 22.22 (22:30) 1.4 0.6 0 0 0.8
18-01-2020 12.9 (11:40) 7.4 (00:00) 10.1 27.22 (12:10) 20 (12:10) 9 0 0.8 6.2 2
17-01-2020 11.3 (14:50) 8.5 (00:00) 9.9 25.83 (05:40) 20.28 (05:40) 1.4 1 0.4 0 0
16-01-2020 17 (07:30) 10.4 (00:00) 13.7 25.28 (13:20) 19.72 (13:20) 24 0 0 23.6 0.4
15-01-2020 16.1 (01:30) 10.2 (00:00) 13.2 25.28 (04:30) 20.28 (05:30) 2.8 1.8 0.8 0 0.2
14-01-2020 16.8 (16:10) 13.6 (00:00) 15.2 33.61 (14:40) 23.89 (11:40) 2.4 1.8 0.4 0.2 0
13-01-2020 14.4 (15:40) 10.4 (00:00) 12.4 29.72 (21:10) 21.39 (18:10) 0.4 0 0 0.2 0.2
12-01-2020 12.6 (16:40) 9.3 (00:00) 11 13.61 (01:20) 11.67 (01:30) 1.6 0 0 0.4 1.2
11-01-2020 13.2 (15:00) 7.5 (00:00) 10.3 13.89 (16:50) 12.22 (17:00) 0 0 0 0 0
10-01-2020 12.5 (14:50) 8.6 (00:00) 10.6 18.89 (00:10) 16.11 (00:10) 0 0 0 0 0
09-01-2020 15.6 (01:20) 8.7 (00:00) 12.2 32.78 (12:40) 25 (12:40) 2.6 0 0.4 1.4 0.8
08-01-2020 16.1 (15:10) 12.5 (00:00) 14.3 12.78 (23:59) 10.56 (23:59) 0 0 0 0 0
07-01-2020 14.3 (19:50) 9.1 (00:00) 11.7 10.83 (06:20) 8.89 (06:20) 0 0 0 0 0
06-01-2020 13.3 (16:10) 7.9 (00:00) 10.6 16.11 (11:10) 13.61 (11:00) 0 0 0 0 0
05-01-2020 11 (00:40) 8.2 (00:00) 9.6 14.72 (05:00) 11.39 (05:00) 0 0 0 0 0
04-01-2020 11.2 (22:10) 9.6 (00:00) 10.4 13.89 (21:40) 10.28 (21:40) 1 0 1 0 0
03-01-2020 14.5 (13:40) 10.5 (00:00) 12.5 19.17 (02:10) 13.61 (02:00) 0 0 0 0 0
02-01-2020 13.5 (23:30) 7.4 (00:00) 10.5 19.72 (17:30) 15.28 (16:50) 0 0 0 0 0
01-01-2020 10.6 (00:00) 8 (00:00) 9.3 6.39 (18:40) 5 (18:40) 0 0 0 0 0
31-12-2019 13.4 (01:20) 10.5 (00:00) 11.9 12.5 (16:10) 10.83 (16:10) 0 0 0 0 0
30-12-2019 15.4 (10:20) 10.3 (00:00) 12.8 13.61 (16:50) 11.39 (16:50) 0 0 0 0 0
29-12-2019 16.1 (06:20) 9.9 (00:00) 13 10.28 (04:30) 8.89 (04:30) 0 0 0 0 0
28-12-2019 12.9 (12:10) 8.7 (00:00) 10.8 13.61 (01:20) 10.83 (01:20) 0 0 0 0 0
27-12-2019 10.9 (15:10) 8.3 (00:00) 9.6 12.22 (23:59) 9.17 (12:40) 0 0 0 0 0
26-12-2019 15.1 (14:30) 10.3 (00:00) 12.7 22.5 (01:00) 19.17 (01:00) 0 0 0 0 0
25-12-2019 20.1 (18:00) 12.6 (00:00) 16.4 27.22 (21:20) 21.11 (22:10) 0.2 0 0 0 0.2

Gráficas

Temp. máximas Temp. mínimas Temp. medias Precipitaciones Rachas de viento máximas Velocidades máximas media en intervalos de 10 minutos

Datos horarios

Fecha y hora oficial Temperatura (ºC) Velocidad del viento (km/h) Dirección del viento Racha (km/h) Dirección de racha Precipitación (mm) Presión (hPa) Tendencia (hPa) Humedad (%)
2020-01-23 23:00:00 9.8 14 Sudeste 26 Sudeste 0 1007.3 1 87
2020-01-23 22:00:00 9.2 17 Sudeste 34 Este 0 1007 1.1 86
2020-01-23 21:00:00 9.9 27 Este 36 Sudeste 0 1006.9 0.9 82
2020-01-23 20:00:00 9.5 26 Sudeste 35 Este 0 1006.3 0.5 84
2020-01-23 19:00:00 9.5 27 Sudeste 34 Este 0 1005.9 -0.1 84
2020-01-23 18:00:00 9.8 26 Sudeste 36 Este 0 1006 -0.5 83
2020-01-23 17:00:00 10.3 21 Sudeste 32 Este 0 1005.8 -1.5 81
2020-01-23 16:00:00 10.5 22 Este 29 Este 0 1006 -1.7 82
2020-01-23 15:00:00 10.8 18 Este 28 Este 0 1006.5 -1.5 79
2020-01-23 14:00:00 10.9 18 Este 23 Sudeste 0 1007.3 -0.8 79
2020-01-23 13:00:00 10.6 14 Sudeste 19 Este 0 1007.7 0 80
2020-01-23 12:00:00 10.6 14 Sudeste 19 Sudeste 0 1008 0.5 82
2020-01-23 11:00:00 10 16 Este 23 Sudeste 0 1008.1 0.9 83
2020-01-23 10:00:00 9.3 17 Sudeste 27 Sudeste 0 1007.7 0.9 84
2020-01-23 09:00:00 8.9 19 Sudeste 27 Sudeste 0 1007.5 0.2 83
2020-01-23 08:00:00 9 20 Sudeste 27 Sudeste 0 1007.2 -0.6 83
2020-01-23 07:00:00 9.3 18 Sudeste 36 Este 0 1006.8 -1.3 84
2020-01-23 06:00:00 9.9 27 Este 36 Este 0 1007.3 -1 82
2020-01-23 05:00:00 9.1 18 Sudeste 33 Sudeste 0 1007.8 -0.8 86
2020-01-23 04:00:00 9.4 24 Sudeste 41 Este 0 1008.1 -0.4 86
2020-01-23 03:00:00 9.9 32 Este 45 Este 0 1008.3 -0.2 86
2020-01-23 02:00:00 9.7 31 Este 43 Este 0 1008.6 0.3 83
2020-01-23 01:00:00 9.7 35 Este 53 Este 0 1008.5 -0.3 85
2020-01-23 00:00:00 9.5 31 Este 50 Este 0.2 1008.5 -0.9 89
2020-01-22 23:00:00 10.1 34 Este 63 Nordeste 1 1008.3 -1.7 93
2020-01-22 22:00:00 10.3 34 Nordeste 54 Nordeste 0.8 1008.8 -1.2 90
2020-01-22 21:00:00 10.2 43 Nordeste 56 Nordeste 1 1009.4 -0.6 90
2020-01-22 20:00:00 10.6 47 Nordeste 60 Nordeste 0 1010 -0.3 85
2020-01-22 19:00:00 11 44 Nordeste 57 Nordeste 0 1010 -0.8 87
2020-01-22 18:00:00 11.4 44 Este 62 Nordeste 0 1010 -1.2 86
2020-01-22 17:00:00 11.6 48 Este 64 Este 0 1010.3 -1.9 83
2020-01-22 16:00:00 11.6 50 Este 66 Este 0 1010.8 -2.2 83
2020-01-22 15:00:00 11.8 49 Este 64 Este 0 1011.2 -2 85
2020-01-22 14:00:00 11.4 56 Nordeste 72 Nordeste 0 1012.2 -1.1 86
2020-01-22 13:00:00 11.4 59 Nordeste 74 Nordeste 0 1013 -0.3 87
2020-01-22 12:00:00 11.1 58 Nordeste 72 Nordeste 0 1013.2 -0.2 88
2020-01-22 11:00:00 11.3 56 Nordeste 72 Nordeste 0 1013.3 0.2 89
2020-01-22 10:00:00 11.2 54 Nordeste 75 Este 0 1013.3 0.3 89
2020-01-22 09:00:00 11.3 56 Este 80 Este 0 1013.4 0.1 88
2020-01-22 08:00:00 11.2 65 Este 77 Este 0 1013.1 -0.5 89
2020-01-22 07:00:00 11.2 65 Este 81 Este 0 1013 -1 88
2020-01-22 06:00:00 11.2 63 Este 84 Este 0 1013.3 -1.8 87
2020-01-22 05:00:00 11.2 69 Este 86 Este 0 1013.6 -2.2 86
2020-01-22 04:00:00 11 59 Este 82 Este 0 1014 -2.5 87
2020-01-22 03:00:00 10 42 Este 63 Este 0.2 1015.1 -1.5 91
2020-01-22 02:00:00 9.3 45 Este 64 Este 0 1015.8 -1.2 90
2020-01-22 01:00:00 9.2 49 Este 66 Este 0 1016.5 -0.4 92
2020-01-22 00:00:00 9.1 48 Este 66 Este 0.2 1016.6 0.2 87
2020-01-21 23:00:00 8.9 45 Este 64 Este 0.6 1017 1.1 92
2020-01-21 22:00:00 8.9 43 Este 87 Este 0.2 1016.9 0.9 90
2020-01-21 21:00:00 9.7 66 Este 91 Este 0 1016.4 0.2 83
2020-01-21 20:00:00 9.9 69 Este 88 Este 0 1015.9 -0.8 79
2020-01-21 19:00:00 10.1 64 Este 89 Este 0 1016 -0.6 79
2020-01-21 18:00:00 9.7 67 Este 87 Este 0 1016.2 -1.1 73
2020-01-21 17:00:00 9.6 64 Este 84 Este 0 1016.7 -1.6 71
2020-01-21 16:00:00 9.4 64 Este 84 Nordeste 0 1016.6 -2.1 70
2020-01-21 15:00:00 9.5 65 Este 84 Este 0 1017.3 -2.4 68
2020-01-21 14:00:00 9.6 63 Este 83 Este 0 1018.3 -1.8 65
2020-01-21 13:00:00 9.6 67 Este 80 Este 0 1018.7 -1 67
2020-01-21 12:00:00 9.5 60 Este 78 Nordeste 0 1019.7 -0.2 69
2020-01-21 11:00:00 9.6 59 Este 77 Nordeste 0 1020.1 0.2 70
2020-01-21 10:00:00 9.4 59 Este 78 Este 0 1019.7 -0.2 71
2020-01-21 09:00:00 9.4 61 Este 83 Este 0 1019.9 0 70
2020-01-21 08:00:00 9.4 66 Este 85 Este 0 1019.9 0.1 74
2020-01-21 07:00:00 9.4 61 Este 86 Este 0.6 1019.9 -1.3 67
2020-01-21 06:00:00 9.4 67 Este 87 Este 0.4 1019.9 -1.5 69
2020-01-21 05:00:00 9.2 61 Este 79 Este 0.2 1019.8 -1.9 71
2020-01-21 04:00:00 8.4 47 Este 69 Este 0 1021.2 -0.9 81
2020-01-21 03:00:00 8.6 54 Este 72 Sudeste 0 1021.4 -0.4 80
2020-01-21 02:00:00 9.4 51 Este 83 Este 0 1021.7 -0.4 71
2020-01-21 01:00:00 9.3 57 Este 84 Este 0 1022.1 -0.2 66
2020-01-21 00:00:00 9.3 58 Este 82 Este 0 1021.8 -0.8 63
2020-01-20 23:00:00 9 55 Este 84 Este 0 1022.1 -0.5 66
2020-01-20 22:00:00 9.3 58 Este 85 Este 0 1022.3 0.6 62
2020-01-20 21:00:00 8.8 60 Este 88 Este 0 1022.6 0.9 58
2020-01-20 20:00:00 8.9 61 Este 95 Este 0 1022.6 1.4 60
2020-01-20 19:00:00 9.2 64 Este 95 Este 0 1021.7 0.1 58
2020-01-20 18:00:00 9.4 75 Este 99 Este 0 1021.7 -0.1 63
2020-01-20 17:00:00 9.4 77 Este 103 Este 0 1021.2 -1.7 63
2020-01-20 16:00:00 9.3 78 Este 98 Este 0 1021.6 -1.7 61
2020-01-20 15:00:00 9.7 76 Este 99 Este 0 1021.8 -2.4 60
2020-01-20 14:00:00 9.5 77 Este 100 Este 0 1022.9 -0.9 64
2020-01-20 13:00:00 9.6 72 Este 103 Este 0 1023.3 0 62
2020-01-20 12:00:00 9.9 78 Este 103 Este 1 1024.2 0.9 62
2020-01-20 11:00:00 8.7 80 Este 108 Este 0 1023.8 0.6 70
2020-01-20 10:00:00 8.7 81 Este 121 Nordeste 0.2 1023.3 0.5 65
2020-01-20 09:00:00 9.3 85 Este 104 Este 0 1023.3 0 59
2020-01-20 08:00:00 8.8 75 Este 103 Este 0 1023.2 -0.3 69
2020-01-20 07:00:00 9.5 78 Este 98 Este 0 1022.8 -1.6 57
2020-01-20 06:00:00 9.3 75 Este 99 Este 0 1023.3 -1.9 59
2020-01-20 05:00:00 9.6 77 Este 98 Este 0 1023.5 -2 56
2020-01-20 04:00:00 9.4 72 Este 104 Este 0.2 1024.4 -1.4 68
2020-01-20 03:00:00 8.3 74 Este 102 Este 0 1025.2 -0.6 75
2020-01-20 02:00:00 10 72 Este 98 Este 0 1025.5 0.1 70
2020-01-20 01:00:00 9.9 76 Este 102 Este 0 1025.8 -0.2 63
2020-01-20 00:00:00 9.8 75 Este 99 Este 0 1025.8 0.2 64
2020-01-19 23:00:00 9.7 78 Este 101 Este 0.4 1025.4 -0.5 64
2020-01-19 22:00:00 9.6 77 Este 95 Este 0 1026 0.5 59
2020-01-19 21:00:00 9.6 75 Este 91 Este 0.2 1025.6 0.6 59
2020-01-19 20:00:00 9.6 69 Este 87 Nordeste 0 1025.9 1 65
2020-01-19 19:00:00 9.7 64 Este 86 Este 0.2 1025.5 1.3 61
2020-01-19 18:00:00 9.9 65 Este 90 Este 0 1025 0.5 63
2020-01-19 17:00:00 9.9 60 Este 86 Este 0 1024.9 -0.2 58
2020-01-19 16:00:00 10.1 68 Este 88 Este 0 1024.2 -1.2 66
2020-01-19 15:00:00 10.4 63 Este 82 Este 0 1024.5 -0.7 66
2020-01-19 14:00:00 10.2 58 Este 76 Nordeste 0 1025.1 0 65
2020-01-19 13:00:00 10.5 61 Este 80 Este 0 1025.4 1.1 64
2020-01-19 12:00:00 10.6 64 Este 82 Este 0 1025.2 1.9 70
2020-01-19 11:00:00 10.7 62 Este 79 Este 0 1025.1 2.8 70
2020-01-19 10:00:00 10.6 60 Este 76 Nordeste 0 1024.3 2.9 67
2020-01-19 09:00:00 10.5 59 Este 79 Este 0 1023.3 3.6 69
2020-01-19 08:00:00 10.4 60 Este 77 Este 0 1022.3 2.7 63
2020-01-19 07:00:00 10.6 58 Este 76 Nordeste 0 1021.4 3.1 71
2020-01-19 06:00:00 10.7 66 Nordeste 82 Nordeste 0 1019.7 2 71
2020-01-19 05:00:00 9.9 50 Nordeste 81 Este 0 1019.6 2.8 83
2020-01-19 04:00:00 10.6 57 Este 77 Este 0.2 1018.3 3.2 78
2020-01-19 03:00:00 10.6 45 Nordeste 81 Nordeste 0.4 1017.7 4.2 82
2020-01-19 02:00:00 10.9 39 Nordeste 69 Nordeste 0 1016.8 4.2 84
2020-01-19 01:00:00 11.1 39 Nordeste 75 Nordeste 0 1015.1 3.4 85
2020-01-19 00:00:00 11 39 Nordeste 61 Nordeste 1.2 1013.5 2.6 87
2020-01-18 23:00:00 10.2 27 Norte 49 Norte 0.2 1012.6 2.8 92
2020-01-18 22:00:00 10.6 17 Norte 40 Noroeste 0 1011.7 2.8 81
2020-01-18 21:00:00 10.8 17 Noroeste 34 Noroeste 0 1010.9 2.5 86
2020-01-18 20:00:00 9.9 27 Oeste 44 Oeste 0 1009.8 1.8 90
2020-01-18 19:00:00 9.1 31 Oeste 51 Oeste 0.6 1008.9 1.8 94
2020-01-18 18:00:00 9 51 Oeste 72 Oeste 1.2 1008.4 1.6 94
2020-01-18 17:00:00 9.7 37 Oeste 71 Noroeste 0.4 1008 1.4 89
2020-01-18 16:00:00 9.2 46 Oeste 77 Noroeste 1.2 1007.1 1 91
2020-01-18 15:00:00 11.9 51 Oeste 70 Oeste 0 1006.8 1.4 76
2020-01-18 14:00:00 11.9 56 Oeste 74 Oeste 0 1006.6 0.7 78
2020-01-18 13:00:00 11.6 58 Oeste 98 Oeste 3.4 1006.1 -0.9 88
2020-01-18 12:00:00 12.3 47 Oeste 63 Sudoeste 0.4 1005.4 -2.4 91
2020-01-18 11:00:00 11.8 42 Sudoeste 63 Sudoeste 0.2 1005.9 -2.4 87
2020-01-18 10:00:00 11.6 26 Sudoeste 40 Sudoeste 0 1007 -2.8 82
2020-01-18 09:00:00 11.9 21 Sudoeste 32 Oeste 0 1007.8 -3.4 72
2020-01-18 08:00:00 10.5 15 Sudeste 35 Sudeste 0 1008.3 -4 70
2020-01-18 07:00:00 9.7 16 Sudeste 33 Sudeste 0.2 1009.8 -4 73
2020-01-18 06:00:00 10.5 23 Sudeste 36 Sudeste 0 1011.2 -3.2 72
2020-01-18 05:00:00 10.5 26 Sudeste 35 Sudeste 0 1012.3 -3.3 64
2020-01-18 04:00:00 10.6 18 Sudeste 28 Sudeste 0 1013.8 -2.8 73
2020-01-18 03:00:00 10 22 Sudeste 30 Sudeste 0 1014.4 -3.2 67
2020-01-18 02:00:00 9.3 14 Sudeste 22 Sudeste 0 1015.6 -2.5 78
2020-01-18 01:00:00 9.3 16 Sudeste 22 Sudeste 0 1016.6 -2.1 71
2020-01-18 00:00:00 9.5 14 Sudeste 22 Sudeste 0 1017.6 -1.5 67
2020-01-17 23:00:00 9 15 Sur 18 Sudeste 0 1018.1 -1.6 73
2020-01-17 22:00:00 9.1 8 Sur 26 Sudoeste 0 1018.7 -0.8 71
2020-01-17 21:00:00 10.4 14 Sudoeste 22 Sudoeste 0 1019.1 -0.4 63
2020-01-17 20:00:00 10.2 18 Sudoeste 25 Sudoeste 0 1019.7 0.3 63
2020-01-17 19:00:00 9.9 17 Sudoeste 22 Sudoeste 0 1019.5 0.1 71
2020-01-17 18:00:00 10 17 Sudoeste 25 Sudoeste 0 1019.5 0.5 73
2020-01-17 17:00:00 10.1 17 Oeste 34 Oeste 0 1019.4 0.4 74
2020-01-17 16:00:00 10.9 30 Oeste 49 Oeste 0 1019.4 0.3 74
2020-01-17 15:00:00 10.7 37 Oeste 44 Oeste 0 1019 -0.1 74
2020-01-17 14:00:00 10.3 41 Oeste 51 Oeste 0 1019 1.1 79
2020-01-17 13:00:00 9.9 37 Oeste 52 Sudoeste 0 1019.1 2.3 77
2020-01-17 12:00:00 9.2 33 Oeste 49 Oeste 0.2 1019.1 2.8 80
2020-01-17 11:00:00 9.6 38 Oeste 57 Sudoeste 0.2 1017.9 3.3 80
2020-01-17 10:00:00 9.7 40 Oeste 52 Sudoeste 0 1016.8 2.9 74
2020-01-17 09:00:00 8.9 34 Sudoeste 59 Oeste 0 1016.3 3.4 81
2020-01-17 08:00:00 10.2 48 Oeste 62 Oeste 0 1014.6 3.2 70
2020-01-17 07:00:00 9.2 38 Oeste 58 Sudoeste 0 1013.9 2.8 77
2020-01-17 06:00:00 8.8 50 Oeste 93 Oeste 0.2 1012.9 2.9 83
2020-01-17 05:00:00 10.4 40 Oeste 61 Oeste 0 1011.4 2.6 78
2020-01-17 04:00:00 10.1 39 Oeste 76 Sudoeste 0 1011.1 3 81
2020-01-17 03:00:00 9.2 54 Oeste 71 Sudoeste 0.4 1010 2.1 83
2020-01-17 02:00:00 10.4 58 Oeste 77 Sudoeste 0 1008.8 2.4 73
2020-01-17 01:00:00 10.2 64 Oeste 82 Oeste 0.4 1008.1 2.4 74
2020-01-17 00:00:00 10.8 54 Oeste 74 Oeste 0 1007.9 2.2 77
2020-01-16 23:00:00 11.2 53 Oeste 66 Oeste 0 1006.4 1.8 81
2020-01-16 22:00:00 11.2 47 Oeste 77 Oeste 0 1005.7 1.8 79
2020-01-16 21:00:00 11.2 46 Oeste 62 Oeste 0 1005.7 2.3 78
2020-01-16 20:00:00 11.1 43 Sudoeste 58 Sudoeste 0 1004.6 2.1 80
2020-01-16 19:00:00 11.3 40 Sudoeste 62 Sudoeste 0.4 1003.9 2.3 80
2020-01-16 18:00:00 10.4 33 Sudoeste 68 Sudoeste 3.4 1003.4 1.1 90
2020-01-16 17:00:00 10.5 57 Oeste 81 Oeste 5.4 1002.5 -0.3 93
2020-01-16 16:00:00 11.5 52 Sudoeste 71 Oeste 5.2 1001.6 -1.2 92
2020-01-16 15:00:00 11.2 52 Oeste 72 Oeste 6 1002.3 -0.9 94
2020-01-16 14:00:00 12.1 50 Oeste 91 Oeste 2.8 1002.8 -0.2 93
2020-01-16 13:00:00 14.4 21 Oeste 44 Sudoeste 0.8 1002.8 -0.3 82
2020-01-16 12:00:00 14.6 20 Oeste 45 Sudoeste 0 1003.2 0.8 79
2020-01-16 11:00:00 16.3 38 Sudoeste 62 Sudoeste 0 1003 1 65
2020-01-16 10:00:00 16.5 32 Sudoeste 59 Sudoeste 0 1003.1 0.7 64
2020-01-16 09:00:00 16.4 28 Sudoeste 67 Sudoeste 0 1002.4 -0.2 64
2020-01-16 08:00:00 16.6 34 Sudoeste 73 Sudoeste 0 1002 -1 63
2020-01-16 07:00:00 16.7 33 Sudoeste 51 Sudoeste 0 1002.4 -0.7 64
2020-01-16 06:00:00 15.9 24 Sudoeste 64 Sudoeste 0 1002.6 -1.5 68
2020-01-16 05:00:00 15.6 41 Sudoeste 64 Sudoeste 0 1003 -2.3 69
2020-01-16 04:00:00 16 34 Sudoeste 64 Sudoeste 0 1003.1 -2.8 63
2020-01-16 03:00:00 15.5 16 Sur 43 Sur 0 1004.1 -2.1 58
2020-01-16 02:00:00 15 13 Sur 25 Sudoeste 0 1005.3 -1.1 63
2020-01-16 01:00:00 13.7 6 Sur 25 Sudeste 0 1005.9 -1.1 70
2020-01-16 00:00:00 11 22 Sudeste 28 Sudeste 0 1006.2 -1.7 81
2020-01-15 23:00:00 10.7 21 Sudeste 38 Sudeste 0 1006.4 -1.9 83
2020-01-15 22:00:00 10.7 29 Sudeste 42 Sudeste 0 1007 -1.4 82
2020-01-15 21:00:00 10.7 30 Sudeste 39 Sudeste 0 1007.9 -0.2 80
2020-01-15 20:00:00 10.9 27 Sudeste 33 Sudeste 0.2 1008.3 0.7 80
2020-01-15 19:00:00 10.9 21 Sudeste 25 Sudeste 0 1008.4 1.1 72
2020-01-15 18:00:00 11.6 6 Oeste 19 Oeste 0 1008.1 0.7 70
2020-01-15 17:00:00 12.6 17 Oeste 29 Oeste 0 1007.6 0 65
2020-01-15 16:00:00 12.2 26 Oeste 33 Oeste 0 1007.3 -0.4 68
2020-01-15 15:00:00 12.5 23 Oeste 29 Noroeste 0 1007.4 -0.2 68
2020-01-15 14:00:00 12.9 18 Oeste 24 Oeste 0 1007.6 1 69
2020-01-15 13:00:00 11.5 22 Oeste 28 Oeste 0 1007.7 2.5 71
2020-01-15 12:00:00 11.6 21 Oeste 29 Oeste 0 1007.6 3.8 77
2020-01-15 11:00:00 10.9 27 Oeste 33 Oeste 0 1006.6 5.2 85
2020-01-15 10:00:00 10.6 27 Oeste 44 Oeste 0 1005.2 5.1 86
2020-01-15 09:00:00 11.2 35 Oeste 60 Oeste 0 1003.8 5.5 80
2020-01-15 08:00:00 11.1 51 Oeste 64 Oeste 0.4 1001.4 5.4 87
2020-01-15 07:00:00 10.8 41 Oeste 64 Oeste 0.4 1000.1 4.8 90
2020-01-15 06:00:00 11 59 Oeste 84 Oeste 1 998.3 4.2 93
2020-01-15 05:00:00 13 62 Oeste 91 Oeste 0.6 996 0.8 85
2020-01-15 04:00:00 14.1 52 Oeste 86 Oeste 0.2 995.3 -0.4 77
2020-01-15 03:00:00 15.7 50 Sudoeste 86 Oeste 0 994.1 -1.3 59
2020-01-15 02:00:00 15.5 45 Sudoeste 90 Sudoeste 0 995.2 0.3 62
2020-01-15 01:00:00 15.8 47 Sudoeste 87 Sudoeste 0 995.7 -0.2 61
2020-01-15 00:00:00 15.3 58 Oeste 83 Sudoeste 0 995.4 -0.8 61
2020-01-14 23:00:00 15.2 58 Sudoeste 93 Sudoeste 0 994.9 -1.8 60
2020-01-14 22:00:00 15.4 50 Sudoeste 81 Sudoeste 0 995.9 -1.3 55
2020-01-14 21:00:00 15.5 57 Sudoeste 87 Oeste 0 996.2 -0.9 54
2020-01-14 20:00:00 15.3 48 Sudoeste 84 Sudoeste 0 996.7 -0.4 56
2020-01-14 19:00:00 15.5 54 Sudoeste 84 Oeste 0 997.2 0.1 57
2020-01-14 18:00:00 15.6 48 Sudoeste 88 Oeste 0 997.1 0.1 58
2020-01-14 17:00:00 16.4 61 Sudoeste 94 Oeste 0 997.1 0.7 54
2020-01-14 16:00:00 16.4 59 Sudoeste 102 Oeste 0 997.1 0.5 53
2020-01-14 15:00:00 16.5 68 Oeste 121 Oeste 0 997 -0.3 53
2020-01-14 14:00:00 15.6 79 Oeste 110 Oeste 0.2 996.4 -0.5 54
2020-01-14 13:00:00 15.5 80 Oeste 116 Oeste 0 996.6 -0.9 55
2020-01-14 12:00:00 14.8 80 Oeste 120 Oeste 0.2 997.3 -0.3 58
2020-01-14 11:00:00 14.6 85 Sudoeste 114 Sudoeste 0.2 996.9 -1 60
2020-01-14 10:00:00 14.4 72 Oeste 105 Sudoeste 0 997.5 0 63
2020-01-14 09:00:00 14.3 69 Oeste 106 Sudoeste 0 997.6 0.2 64
2020-01-14 08:00:00 14 65 Sudoeste 106 Oeste 0 997.9 0.4 67
2020-01-14 07:00:00 14.1 72 Sudoeste 107 Sudoeste 0 997.5 -0.2 66
2020-01-14 06:00:00 14.1 68 Sudoeste 111 Sudoeste 0.6 997.4 -0.1 67
2020-01-14 05:00:00 14 71 Sudoeste 99 Sudoeste 0 997.5 -0.6 66
2020-01-14 04:00:00 13.9 73 Sudoeste 101 Oeste 0 997.7 -0.7 67
2020-01-14 03:00:00 13.7 78 Sudoeste 103 Sudoeste 0.2 997.5 -1.7 70
2020-01-14 02:00:00 13.9 71 Sudoeste 114 Oeste 0.8 998.1 -1.5 68
2020-01-14 01:00:00 14 77 Oeste 108 Oeste 0.2 998.4 -1.6 67
2020-01-14 00:00:00 13.8 65 Sudoeste 97 Oeste 0 999.2 -1 67
2020-01-13 23:00:00 13.4 66 Sudoeste 100 Oeste 0 999.6 -1.1 69
2020-01-13 22:00:00 13.3 71 Oeste 107 Oeste 0 1000 -0.9 67
2020-01-13 21:00:00 12.9 70 Sudoeste 98 Oeste 0.2 1000.2 -0.1 67
2020-01-13 20:00:00 12.7 65 Sudoeste 96 Oeste 0 1000.7 -0.2 67
2020-01-13 19:00:00 12.7 69 Sudoeste 101 Oeste 0 1000.9 -1.2 66
2020-01-13 18:00:00 13 73 Oeste 98 Oeste 0 1000.3 -2 64
2020-01-13 17:00:00 13.7 61 Sudoeste 86 Sudoeste 0 1000.9 -3.5 60
2020-01-13 16:00:00 14.1 66 Sudoeste 94 Oeste 0 1002.1 -3.5 56
2020-01-13 15:00:00 13.7 58 Oeste 81 Oeste 0 1002.3 -4.6 57
2020-01-13 14:00:00 13 50 Oeste 73 Oeste 0.2 1004.4 -3.2 59
2020-01-13 13:00:00 13 41 Oeste 60 Oeste 0 1005.6 -2.6 57
2020-01-13 12:00:00 12.6 33 Oeste 48 Sudoeste 0 1006.9 -2.8 62
2020-01-13 11:00:00 12.4 36 Sudoeste 53 Sudoeste 0 1007.6 -1.7 61
2020-01-13 10:00:00 11.1 38 Sudoeste 59 Sudoeste 0 1008.2 -1.6 68
2020-01-13 09:00:00 10.9 13 Oeste 41 Oeste 0 1009.7 -0.7 75
2020-01-13 08:00:00 10.6 20 Oeste 40 Oeste 0 1009.3 -2.5 78
2020-01-13 07:00:00 10.7 34 Sudoeste 48 Sudoeste 0 1009.8 -3 78
2020-01-13 06:00:00 10.6 39 Oeste 51 Oeste 0 1010.4 -2.9 77
2020-01-13 05:00:00 11.1 31 Oeste 40 Oeste 0 1011.8 -2.3 79
2020-01-13 04:00:00 11.1 23 Oeste 29 Oeste 0 1012.8 -2.6 82
2020-01-13 03:00:00 11 15 Oeste 31 Oeste 0 1013.3 -2.9 82
2020-01-13 02:00:00 11 19 Oeste 27 Oeste 0 1014.1 -2.4 84
2020-01-13 01:00:00 10.8 15 Oeste 26 Oeste 0 1015.4 -1.4 88
2020-01-13 00:00:00 10.7 16 Oeste 24 Oeste 0.2 1016.2 -1.3 92
2020-01-12 23:00:00 11.1 9 Oeste 11 Oeste 0 1016.5 -1.1 93
2020-01-12 22:00:00 10.8 6 Sudoeste 12 Sudoeste 0 1016.8 -1 92
2020-01-12 21:00:00 11.2 6 Este 17 Sudeste 0.2 1017.5 -0.2 92
2020-01-12 20:00:00 10.3 12 Sudeste 15 Sudeste 0.4 1017.6 -0.2 92
2020-01-12 19:00:00 11.2 8 Oeste 12 Sudoeste 0.4 1017.8 0.1 94
2020-01-12 18:00:00 11.6 13 Oeste 18 Oeste 0.2 1017.7 -0.4 93
2020-01-12 17:00:00 11.8 16 Oeste 24 Oeste 0 1017.8 -1 90
2020-01-12 16:00:00 12.3 21 Oeste 23 Oeste 0 1017.7 -1.9 84
2020-01-12 15:00:00 11.4 18 Oeste 25 Oeste 0.2 1018.1 -2 86
2020-01-12 14:00:00 10.8 23 Oeste 30 Oeste 0 1018.8 -1.2 88
2020-01-12 13:00:00 11 22 Oeste 28 Oeste 0 1019.6 0.1 83
2020-01-12 12:00:00 10.9 23 Oeste 27 Oeste 0 1020.1 0.9 81
2020-01-12 11:00:00 11.4 24 Oeste 33 Oeste 0 1020 1 73
2020-01-12 10:00:00 11.7 26 Oeste 32 Oeste 0 1019.5 0.9 72
2020-01-12 09:00:00 11.7 21 Oeste 29 Oeste 0 1019.2 0.7 71
2020-01-12 08:00:00 11.8 25 Oeste 34 Oeste 0 1019 0.2 68
2020-01-12 07:00:00 11.9 29 Oeste 36 Oeste 0 1018.6 -0.5 63
2020-01-12 06:00:00 10.6 22 Oeste 27 Oeste 0 1018.5 -0.1 68
2020-01-12 05:00:00 10.5 20 Oeste 32 Oeste 0 1018.8 0.1 65
2020-01-12 04:00:00 10.4 26 Oeste 40 Oeste 0 1019.1 0 62
2020-01-12 03:00:00 10.1 31 Oeste 42 Oeste 0 1018.6 -0.8 67
2020-01-12 02:00:00 9.7 37 Oeste 49 Oeste 0 1018.7 -1.1 67
2020-01-12 01:00:00 9.5 31 Oeste 42 Sudoeste 0 1019.1 -0.9 74
2020-01-12 00:00:00 9.5 30 Oeste 41 Sudoeste 0 1019.4 -0.7 75
2020-01-11 23:00:00 9.5 24 Oeste 30 Oeste 0 1019.8 -0.5 83
2020-01-11 22:00:00 9.6 20 Sudoeste 26 Oeste 0 1020 0 82
2020-01-11 21:00:00 9.8 17 Sudoeste 25 Oeste 0 1020.1 0.8 80
2020-01-11 20:00:00 9.8 15 Sudoeste 23 Oeste 0 1020.3 1.8 78
2020-01-11 19:00:00 9.8 14 Sudoeste 35 Oeste 0 1020 1.5 76
2020-01-11 18:00:00 10.7 33 Oeste 47 Noroeste 0 1019.3 0.4 78
2020-01-11 17:00:00 10.8 44 Oeste 50 Noroeste 0 1018.5 -0.6 73
2020-01-11 16:00:00 11.5 36 Oeste 40 Oeste 0 1018.5 -1.8 69
2020-01-11 15:00:00 12.8 23 Oeste 37 Oeste 0 1018.9 -2.2 59
2020-01-11 14:00:00 12.1 30 Oeste 34 Oeste 0 1019.1 -1.8 59
2020-01-11 13:00:00 10.4 14 Oeste 19 Oeste 0 1020.3 -0.6 68
2020-01-11 12:00:00 8.9 9 Oeste 23 Sudoeste 0 1021.1 0.3 72
2020-01-11 11:00:00 8.7 23 Oeste 30 Oeste 0 1020.9 -0.2 66
2020-01-11 10:00:00 7.8 14 Oeste 19 Oeste 0 1020.9 0 80
2020-01-11 09:00:00 8 9 Oeste 14 Oeste 0 1020.8 -0.3 78
2020-01-11 08:00:00 8.3 4 Sudoeste 6 Sudoeste 0 1021.1 -0.2 73
2020-01-11 07:00:00 8.2 5 Oeste 9 Oeste 0 1020.9 -0.9 77
2020-01-11 06:00:00 8.7 5 Oeste 12 Sudeste 0 1021.1 -0.8 68
2020-01-11 05:00:00 9 2 Este 15 Sur 0 1021.3 -0.8 68
2020-01-11 04:00:00 8.1 12 Sur 16 Sur 0 1021.8 -0.9 72
2020-01-11 03:00:00 8.2 18 Sudeste 23 Sudeste 0 1021.9 -1.3 75
2020-01-11 02:00:00 8.5 19 Sudeste 22 Sudeste 0 1022.1 -1 78
2020-01-11 01:00:00 8.4 18 Sudeste 21 Sudeste 0 1022.7 -0.6 77
2020-01-11 00:00:00 8.9 11 Sur 17 Sudeste 0 1023.2 0.1 75
2020-01-10 23:00:00 9.1 15 Sudeste 17 Sudeste 0 1023.1 0.3 75
2020-01-10 22:00:00 9.4 10 Sudeste 16 Sudeste 0 1023.3 0.9 76
2020-01-10 21:00:00 9.2 15 Sudeste 19 Sudeste 0 1023.1 1 76
2020-01-10 20:00:00 9.3 14 Sudeste 18 Sudeste 0 1022.8 0.8 77
2020-01-10 19:00:00 10.2 13 Sudeste 16 Sudeste 0 1022.4 0.5 74
2020-01-10 18:00:00 10.3 9 Sudeste 14 Este 0 1022.1 0.1 72
2020-01-10 17:00:00 11.2 10 Este 15 Este 0 1022 0.1 68
2020-01-10 16:00:00 11.5 9 Este 13 Este 0 1021.9 -1.2 65
2020-01-10 15:00:00 12.1 4 Nordeste 13 Norte 0 1022 -1.5 63
2020-01-10 14:00:00 11.9 9 Nordeste 14 Nordeste 0 1021.9 -0.5 64
2020-01-10 13:00:00 12.1 8 Nordeste 19 Nordeste 0 1023.1 0.9 63
2020-01-10 12:00:00 11.1 13 Norte 23 Nordeste 0 1023.5 2.2 69
2020-01-10 11:00:00 11 13 Norte 22 Norte 0 1022.4 1.2 69
2020-01-10 10:00:00 10.9 15 Norte 25 Norte 0 1022.2 1.3 67
2020-01-10 09:00:00 10.8 21 Norte 30 Norte 0 1021.3 1 70
2020-01-10 08:00:00 10.8 15 Norte 27 Norte 0 1021.2 1.8 73
2020-01-10 07:00:00 11 14 Noroeste 28 Norte 0 1020.9 1.8 73
2020-01-10 06:00:00 10.8 19 Norte 35 Noroeste 0 1020.3 1.7 71
2020-01-10 05:00:00 10.9 15 Noroeste 45 Oeste 0 1019.4 1.5 75
2020-01-10 04:00:00 10.9 15 Noroeste 37 Noroeste 0 1019.1 1.6 73
2020-01-10 03:00:00 11 18 Noroeste 64 Noroeste 0 1018.6 1.8 73
2020-01-10 02:00:00 11.4 45 Noroeste 59 Noroeste 0 1017.9 1.9 72
2020-01-10 01:00:00 10.9 46 Oeste 68 Oeste 0 1017.5 1 79
2020-01-10 00:00:00 11.7 56 Oeste 67 Oeste 0 1016.8 1.3 67
2020-01-09 23:00:00 11.5 61 Oeste 75 Oeste 0 1016 1.7 70
2020-01-09 22:00:00 10.6 40 Oeste 72 Oeste 0 1016.5 2.6 79
2020-01-09 21:00:00 10.9 57 Oeste 70 Oeste 0 1015.5 2.4 75
2020-01-09 20:00:00 11.3 54 Oeste 83 Oeste 0 1014.3 1.6 78
2020-01-09 19:00:00 10.7 49 Oeste 71 Oeste 0.8 1013.9 2.4 83
2020-01-09 18:00:00 11.7 56 Oeste 76 Oeste 0 1013.1 3 69
2020-01-09 17:00:00 11.8 55 Oeste 90 Oeste 0 1012.7 3.7 70
2020-01-09 16:00:00 11.7 73 Oeste 95 Oeste 0 1011.5 2.3 70
2020-01-09 15:00:00 11.7 81 Oeste 98 Oeste 0 1010.1 1.8 77
2020-01-09 14:00:00 10.6 84 Oeste 108 Oeste 0.4 1009 0.7 85
2020-01-09 13:00:00 9.4 72 Oeste 118 Oeste 1 1009.2 1.1 95
2020-01-09 12:00:00 12.9 72 Oeste 102 Oeste 0.4 1008.3 0.1 87
2020-01-09 11:00:00 14.3 53 Oeste 71 Oeste 0 1008.3 0.1 85
2020-01-09 10:00:00 14.4 54 Oeste 75 Oeste 0 1008.1 -0.8 85
2020-01-09 09:00:00 14.3 57 Oeste 86 Sudoeste 0 1008.2 -1.7 82
2020-01-09 08:00:00 15.1 66 Oeste 89 Sudoeste 0 1008.2 -2.7 74
2020-01-09 07:00:00 14.9 58 Oeste 77 Oeste 0 1008.9 -3.3 75
2020-01-09 06:00:00 14.9 42 Oeste 65 Sudoeste 0 1009.9 -2.3 76
2020-01-09 05:00:00 14.7 46 Oeste 58 Oeste 0 1010.9 -1.7 81
2020-01-09 04:00:00 14 33 Oeste 50 Oeste 0 1012.2 -1.1 84
2020-01-09 03:00:00 14.1 33 Oeste 49 Oeste 0 1012.2 -1.6 83
2020-01-09 02:00:00 15.1 35 Oeste 48 Sudoeste 0 1012.6 -2.2 78
2020-01-09 01:00:00 14.7 31 Oeste 47 Sudoeste 0 1013.3 -1.8 79
2020-01-09 00:00:00 15.4 38 Sudoeste 46 Sudoeste 0 1013.8 -1.4 75
2020-01-08 23:00:00 15 31 Oeste 45 Sudoeste 0 1014.8 -1.3 76
2020-01-08 22:00:00 15.1 31 Oeste 45 Oeste 0 1015.1 -1.1 76
2020-01-08 21:00:00 15.3 32 Oeste 40 Oeste 0 1015.2 -1 75
2020-01-08 20:00:00 14.9 24 Oeste 36 Oeste 0 1016.1 -0.2 78
2020-01-08 19:00:00 14.9 33 Oeste 38 Oeste 0 1016.2 -0.3 81
2020-01-08 18:00:00 15.4 21 Sudoeste 30 Oeste 0 1016.2 -0.5 78
2020-01-08 17:00:00 15.2 23 Oeste 30 Oeste 0 1016.3 -0.9 80
2020-01-08 16:00:00 15.3 21 Oeste 33 Oeste 0 1016.5 -1.6 81
2020-01-08 15:00:00 15.8 26 Oeste 34 Oeste 0 1016.7 -2.3 83
2020-01-08 14:00:00 14.4 28 Oeste 33 Oeste 0 1017.2 -2 85
2020-01-08 13:00:00 14 25 Oeste 30 Oeste 0 1018.1 -0.7 85
2020-01-08 12:00:00 13.4 24 Oeste 32 Oeste 0 1019 0.4 87
2020-01-08 11:00:00 13 18 Oeste 23 Oeste 0 1019.2 0.7 90
2020-01-08 10:00:00 12.6 17 Oeste 21 Oeste 0 1018.8 0.4 91
2020-01-08 09:00:00 12.6 17 Oeste 23 Oeste 0 1018.6 0 91
2020-01-08 08:00:00 12.7 20 Oeste 22 Oeste 0 1018.5 -0.1 91
2020-01-08 07:00:00 12.8 21 Oeste 23 Oeste 0 1018.4 -0.4 90
2020-01-08 06:00:00 13 22 Oeste 32 Oeste 0 1018.6 -0.4 89
2020-01-08 05:00:00 13.9 29 Oeste 36 Sudoeste 0 1018.6 -0.6 87
2020-01-08 04:00:00 13.8 29 Oeste 34 Oeste 0 1018.8 -0.4 88
2020-01-08 03:00:00 13.3 22 Oeste 25 Oeste 0 1019 -0.6 89
2020-01-08 02:00:00 13 15 Oeste 26 Oeste 0 1019.2 -0.5 90
2020-01-08 01:00:00 12.8 22 Oeste 28 Oeste 0 1019.2 -0.4 90
2020-01-08 00:00:00 13.1 21 Oeste 27 Oeste 0 1019.6 -0.3 86
2020-01-07 23:00:00 13.7 22 Oeste 38 Oeste 0 1019.7 -0.1 83
2020-01-07 22:00:00 14 28 Oeste 35 Sudoeste 0 1019.6 -0.2 81
2020-01-07 21:00:00 13.7 17 Oeste 27 Oeste 0 1019.9 0.4 75
2020-01-07 20:00:00 13.6 21 Oeste 31 Oeste 0 1019.8 0.3 75
2020-01-07 19:00:00 13.4 14 Sudoeste 20 Sudoeste 0 1019.8 0.5 70
2020-01-07 18:00:00 11.7 12 Sur 19 Sudeste 0 1019.5 0.1 72
2020-01-07 17:00:00 12.3 8 Sudeste 17 Este 0 1019.5 -0.6 59
2020-01-07 16:00:00 13.1 4 Este 26 Oeste 0 1019.3 -1.7 56
2020-01-07 15:00:00 12.9 19 Oeste 24 Oeste 0 1019.4 -2.2 74
2020-01-07 14:00:00 12.7 9 Oeste 17 Oeste 0 1020.1 -1.2 66
2020-01-07 13:00:00 12.3 14 Oeste 19 Oeste 0 1021 0.2 60
2020-01-07 12:00:00 11.3 13 Oeste 22 Oeste 0 1021.6 1.4 65
2020-01-07 11:00:00 10.5 18 Oeste 26 Sudoeste 0 1021.3 1.6 68
2020-01-07 10:00:00 10.3 16 Oeste 26 Sudoeste 0 1020.8 1.6 67
2020-01-07 09:00:00 9.3 10 Sudoeste 14 Sudoeste 0 1020.2 0.8 69
2020-01-07 08:00:00 10 7 Oeste 27 Oeste 0 1019.7 0 71
2020-01-07 07:00:00 9.6 20 Oeste 39 Oeste 0 1019.2 -0.9 75
2020-01-07 06:00:00 10.7 30 Oeste 35 Oeste 0 1019.4 -0.4 68
2020-01-07 05:00:00 10.4 29 Oeste 38 Oeste 0 1019.7 -0.5 71
2020-01-07 04:00:00 10.7 26 Oeste 35 Oeste 0 1020.1 0 71
2020-01-07 03:00:00 10.4 21 Oeste 27 Sudoeste 0 1019.8 -0.6 74
2020-01-07 02:00:00 10.1 13 Oeste 18 Oeste 0 1020.2 -0.4 75
2020-01-07 01:00:00 9.7 6 Oeste 19 Oeste 0 1020.1 -0.1 80
2020-01-07 00:00:00 10.4 23 Oeste 32 Oeste 0 1020.4 0.5 77
2020-01-06 23:00:00 10.1 17 Oeste 19 Oeste 0 1020.6 1 81
2020-01-06 22:00:00 10.5 12 Oeste 32 Sudoeste 0 1020.2 1.2 76
2020-01-06 21:00:00 11 22 Sudoeste 30 Oeste 0 1019.9 1.7 74
2020-01-06 20:00:00 10.9 23 Oeste 29 Oeste 0 1019.6 2.1 77
2020-01-06 19:00:00 11.2 25 Oeste 45 Oeste 0 1019 2.2 77
2020-01-06 18:00:00 11.7 41 Oeste 49 Oeste 0 1018.2 1.9 75
2020-01-06 17:00:00 12.6 42 Oeste 49 Oeste 0 1017.5 1.3 72
2020-01-06 16:00:00 13.2 39 Oeste 50 Oeste 0 1016.8 0.2 70
2020-01-06 15:00:00 12.7 41 Oeste 50 Oeste 0 1016.3 -1.6 69
2020-01-06 14:00:00 12 42 Oeste 51 Sudoeste 0 1016.2 -1.2 71
2020-01-06 13:00:00 11.4 35 Oeste 50 Oeste 0 1016.6 -0.5 69
2020-01-06 12:00:00 10.4 43 Oeste 58 Oeste 0 1017.9 1.2 73
2020-01-06 11:00:00 9.9 49 Oeste 55 Sudoeste 0 1017.4 0.8 74
2020-01-06 10:00:00 9 38 Oeste 44 Oeste 0 1017.1 0.9 77